Terminal Aerodrome Forecast
Issued by NWS

Home | Current Version | Previous Version | Graphics & Text | Print | Product List | Glossary On
Versions: 1 2 3 4 5 6 7 8 9 10 11 12 13 14 15 16 17
000
FTUS43 KOAX 251604 AAE
TAFCDR
TAF AMD
KCDR 251604Z 2516/2612 03011G22KT 1/2SM -SN FZFG OVC006
      TEMPO 2516/2518 1SM BR OVC002
     FM260400 01007KT 3SM -SN OVC009=

USA.gov is the U.S. government's official web portal to all federal, state and local government web resources and services.